Aérodrome :
LOGIN :

S'inscrire | Disclaimer

   EN    FR    IT 

 










Légende :    VFR   VFR Marginal   IFR   IFR Intensif   IFR Très Intensif
Visi : 
Plafond : 
>= 8 km
>= 3000ft
5 à 8 km
1000 à 3000 ft
1500m à 5 km
500 à 1000 ft
800 à 1500m
200 à 500 ft
< 800m
< 200 ft
Symboles :   Orages  Brouillard  Fortes neiges  Fortes précipitations  Vent > 20 kt
SIGMETs :   Divers  Orages  Givrage  Turbulence  Onde Orograph.  Cendres Volcan.







- Altitude de l'aérodrome : 160 ft
- Code IATA : FMO


EDDG - Münster Osnabrück Int.

DERNIER METAR :
  • 231550Z VRB02KT 9999 FEW028 SCT100 18/11 Q1023 NOSIG

METARs EXPIRÉS :
  • 231520Z 30004KT 260V010 9999 FEW028 SCT100 18/11 Q1023 NOSIG
  • 231450Z 31004KT 260V010 9999 FEW027 18/11 Q1023 NOSIG
  • 231420Z 26003KT 180V340 9999 FEW027 18/11 Q1023 NOSIG
  • 231350Z VRB04KT 9999 FEW028 SCT040 18/11 Q1023 NOSIG
  • 231320Z 26006KT 240V300 9999 SCT025 BKN035 17/11 Q1024 NOSIG

TAF TAF EDDG
Valide du 23 à 12h jusqu'au 24 à 12h UTC


231100Z 2312/2412 35005KT 9999 BKN020
BECMG 2314/2317 VRB02KT
BECMG 2320/2322 3000 BR
BECMG 2322/2324 2000 BCFG
BECMG 2400/2403 BKN003
TEMPO 2400/2407 0300 FG OVC001
BECMG 2408/2410 3500 BR BKN007
BECMG 2410/2412 02005KT 7000 BKN020
Pas de NOTAMs connus pour ce terrain.



MET'MAP, la Météo Aéronautique d'un coup d'oeil ! - Copyright ORBIFLY Décembre 2007 - Disclaimer

ORBIFLY MET'MAP TEAM :

Programmation & Développement : Alexandra Zaïnal
Conception & Développement : Baudouin d'Aumeries
Co-Programmation & Développement : Marc-Olivier Méhu
Soutien technique & logistique : Manuel Goepfert

Contact : metmap@orbifly.com




SOURCES & CREDITS :

   NOAA